sensor_id;sensor_type;location;lat;lon;timestamp;temperature;humidity
21403;DHT22;10862;51.886;17.078;2023-04-01T00:00:20;8.80;99.90
21403;DHT22;10862;51.886;17.078;2023-04-01T00:02:46;8.80;99.90
21403;DHT22;10862;51.886;17.078;2023-04-01T00:05:12;8.80;99.90
21403;DHT22;10862;51.886;17.078;2023-04-01T00:07:39;8.80;99.90
21403;DHT22;10862;51.886;17.078;2023-04-01T00:10:06;8.70;99.90
21403;DHT22;10862;51.886;17.078;2023-04-01T00:12:33;8.70;99.90
21403;DHT22;10862;51.886;17.078;2023-04-01T00:14:59;8.70;99.90
21403;DHT22;10862;51.886;17.078;2023-04-01T00:17:25;8.80;99.90
21403;DHT22;10862;51.886;17.078;2023-04-01T00:19:51;8.70;99.90
21403;DHT22;10862;51.886;17.078;2023-04-01T00:22:17;8.70;99.90
21403;DHT22;10862;51.886;17.078;2023-04-01T00:24:43;8.70;99.90
21403;DHT22;10862;51.886;17.078;2023-04-01T00:27:08;8.70;99.90
21403;DHT22;10862;51.886;17.078;2023-04-01T00:29:34;8.70;99.90
21403;DHT22;10862;51.886;17.078;2023-04-01T00:32:01;8.70;99.90
21403;DHT22;10862;51.886;17.078;2023-04-01T00:34:27;8.70;99.90
21403;DHT22;10862;51.886;17.078;2023-04-01T00:36:52;8.70;99.90
21403;DHT22;10862;51.886;17.078;2023-04-01T00:39:20;8.70;99.90
21403;DHT22;10862;51.886;17.078;2023-04-01T00:41:47;8.70;99.90
21403;DHT22;10862;51.886;17.078;2023-04-01T00:44:22;8.70;99.90
21403;DHT22;10862;51.886;17.078;2023-04-01T00:46:47;8.70;99.90
21403;DHT22;10862;51.886;17.078;2023-04-01T00:49:16;8.70;99.90
21403;DHT22;10862;51.886;17.078;2023-04-01T00:51:43;8.70;99.90
21403;DHT22;10862;51.886;17.078;2023-04-01T00:54:11;8.70;99.90
21403;DHT22;10862;51.886;17.078;2023-04-01T00:56:41;8.70;99.90
21403;DHT22;10862;51.886;17.078;2023-04-01T00:59:13;8.80;99.90
21403;DHT22;10862;51.886;17.078;2023-04-01T01:01:40;8.80;99.90
21403;DHT22;10862;51.886;17.078;2023-04-01T01:04:06;8.80;99.90
21403;DHT22;10862;51.886;17.078;2023-04-01T01:06:57;8.80;99.90
21403;DHT22;10862;51.886;17.078;2023-04-01T01:09:30;8.80;99.90
21403;DHT22;10862;51.886;17.078;2023-04-01T01:17:46;8.80;99.90
21403;DHT22;10862;51.886;17.078;2023-04-01T01:20:20;8.90;99.90
21403;DHT22;10862;51.886;17.078;2023-04-01T01:28:44;8.90;99.90
21403;DHT22;10862;51.886;17.078;2023-04-01T01:31:20;8.80;99.90
21403;DHT22;10862;51.886;17.078;2023-04-01T01:36:21;8.80;99.90
21403;DHT22;10862;51.886;17.078;2023-04-01T01:38:48;8.80;99.90
21403;DHT22;10862;51.886;17.078;2023-04-01T01:41:16;8.80;99.90
21403;DHT22;10862;51.886;17.078;2023-04-01T01:43:46;8.70;99.90
21403;DHT22;10862;51.886;17.078;2023-04-01T01:46:17;8.70;99.90
21403;DHT22;10862;51.886;17.078;2023-04-01T01:48:47;8.70;99.90
21403;DHT22;10862;51.886;17.078;2023-04-01T01:51:13;8.70;99.90
21403;DHT22;10862;51.886;17.078;2023-04-01T01:53:40;8.70;99.90
21403;DHT22;10862;51.886;17.078;2023-04-01T01:56:05;8.60;99.90
21403;DHT22;10862;51.886;17.078;2023-04-01T01:58:35;8.60;99.90
21403;DHT22;10862;51.886;17.078;2023-04-01T02:01:12;8.50;99.90
21403;DHT22;10862;51.886;17.078;2023-04-01T02:03:39;8.50;99.90
21403;DHT22;10862;51.886;17.078;2023-04-01T02:06:08;8.50;99.90
21403;DHT22;10862;51.886;17.078;2023-04-01T02:08:49;8.40;99.90
21403;DHT22;10862;51.886;17.078;2023-04-01T02:11:19;8.40;99.90
21403;DHT22;10862;51.886;17.078;2023-04-01T02:13:52;8.40;99.90
21403;DHT22;10862;51.886;17.078;2023-04-01T02:16:26;8.40;99.90
21403;DHT22;10862;51.886;17.078;2023-04-01T02:18:55;8.40;99.90
21403;DHT22;10862;51.886;17.078;2023-04-01T02:21:24;8.40;99.90
21403;DHT22;10862;51.886;17.078;2023-04-01T02:23:52;8.30;99.90
21403;DHT22;10862;51.886;17.078;2023-04-01T02:26:20;8.40;99.90
21403;DHT22;10862;51.886;17.078;2023-04-01T02:28:46;8.30;99.90
21403;DHT22;10862;51.886;17.078;2023-04-01T02:31:15;8.30;99.90
21403;DHT22;10862;51.886;17.078;2023-04-01T02:33:41;8.30;99.90
21403;DHT22;10862;51.886;17.078;2023-04-01T02:36:12;8.30;99.90
21403;DHT22;10862;51.886;17.078;2023-04-01T02:38:39;8.30;99.90
21403;DHT22;10862;51.886;17.078;2023-04-01T02:41:05;8.20;99.90
21403;DHT22;10862;51.886;17.078;2023-04-01T02:43:31;8.20;99.90
21403;DHT22;10862;51.886;17.078;2023-04-01T02:45:57;8.20;99.90
21403;DHT22;10862;51.886;17.078;2023-04-01T02:48:23;8.20;99.90
21403;DHT22;10862;51.886;17.078;2023-04-01T02:50:49;8.20;99.90
21403;DHT22;10862;51.886;17.078;2023-04-01T02:53:15;8.20;99.90
21403;DHT22;10862;51.886;17.078;2023-04-01T02:55:41;8.20;99.90
21403;DHT22;10862;51.886;17.078;2023-04-01T02:58:07;8.30;99.90
21403;DHT22;10862;51.886;17.078;2023-04-01T03:00:34;8.30;99.90
21403;DHT22;10862;51.886;17.078;2023-04-01T03:03:00;8.20;99.90
21403;DHT22;10862;51.886;17.078;2023-04-01T03:05:26;8.30;99.90
21403;DHT22;10862;51.886;17.078;2023-04-01T03:07:51;8.30;99.90
21403;DHT22;10862;51.886;17.078;2023-04-01T03:10:17;8.30;99.90
21403;DHT22;10862;51.886;17.078;2023-04-01T03:12:43;8.30;99.90
21403;DHT22;10862;51.886;17.078;2023-04-01T03:15:11;8.30;99.90
21403;DHT22;10862;51.886;17.078;2023-04-01T03:17:37;8.30;99.90
21403;DHT22;10862;51.886;17.078;2023-04-01T03:20:03;8.40;99.90
21403;DHT22;10862;51.886;17.078;2023-04-01T03:22:30;8.40;99.90
21403;DHT22;10862;51.886;17.078;2023-04-01T03:24:56;8.40;99.90
21403;DHT22;10862;51.886;17.078;2023-04-01T03:27:22;8.40;99.90
21403;DHT22;10862;51.886;17.078;2023-04-01T03:29:48;8.40;99.90
21403;DHT22;10862;51.886;17.078;2023-04-01T03:32:14;8.40;99.90
21403;DHT22;10862;51.886;17.078;2023-04-01T03:34:40;8.50;99.90
21403;DHT22;10862;51.886;17.078;2023-04-01T03:37:06;8.50;99.90
21403;DHT22;10862;51.886;17.078;2023-04-01T03:39:31;8.50;99.90
21403;DHT22;10862;51.886;17.078;2023-04-01T03:41:57;8.50;99.90
21403;DHT22;10862;51.886;17.078;2023-04-01T03:44:23;8.50;99.90
21403;DHT22;10862;51.886;17.078;2023-04-01T03:46:48;8.50;99.90
21403;DHT22;10862;51.886;17.078;2023-04-01T03:49:14;8.50;99.90
21403;DHT22;10862;51.886;17.078;2023-04-01T03:51:42;8.60;99.90
21403;DHT22;10862;51.886;17.078;2023-04-01T03:54:09;8.60;99.90
21403;DHT22;10862;51.886;17.078;2023-04-01T03:56:36;8.60;99.90
21403;DHT22;10862;51.886;17.078;2023-04-01T03:59:04;8.60;99.90
21403;DHT22;10862;51.886;17.078;2023-04-01T04:01:30;8.60;99.90
21403;DHT22;10862;51.886;17.078;2023-04-01T04:03:57;8.60;99.90
21403;DHT22;10862;51.886;17.078;2023-04-01T04:06:23;8.60;99.90
21403;DHT22;10862;51.886;17.078;2023-04-01T04:08:50;8.60;99.90
21403;DHT22;10862;51.886;17.078;2023-04-01T04:11:16;8.60;99.90
21403;DHT22;10862;51.886;17.078;2023-04-01T04:13:42;8.60;99.90
21403;DHT22;10862;51.886;17.078;2023-04-01T04:16:08;8.70;99.90
21403;DHT22;10862;51.886;17.078;2023-04-01T04:18:36;8.70;99.90
21403;DHT22;10862;51.886;17.078;2023-04-01T04:21:03;8.70;99.90
21403;DHT22;10862;51.886;17.078;2023-04-01T04:23:29;8.70;99.90
21403;DHT22;10862;51.886;17.078;2023-04-01T04:26:22;8.70;99.90
21403;DHT22;10862;51.886;17.078;2023-04-01T04:28:47;8.70;99.90
21403;DHT22;10862;51.886;17.078;2023-04-01T04:31:18;8.70;99.90
21403;DHT22;10862;51.886;17.078;2023-04-01T04:33:45;8.70;99.90
21403;DHT22;10862;51.886;17.078;2023-04-01T04:36:10;8.70;99.90
21403;DHT22;10862;51.886;17.078;2023-04-01T04:38:36;8.70;99.90
21403;DHT22;10862;51.886;17.078;2023-04-01T04:41:02;8.80;99.90
21403;DHT22;10862;51.886;17.078;2023-04-01T04:43:28;8.80;99.90
21403;DHT22;10862;51.886;17.078;2023-04-01T04:45:53;8.70;99.90
21403;DHT22;10862;51.886;17.078;2023-04-01T04:48:19;8.70;99.90
21403;DHT22;10862;51.886;17.078;2023-04-01T04:50:49;8.70;99.90
21403;DHT22;10862;51.886;17.078;2023-04-01T04:53:16;8.80;99.90
21403;DHT22;10862;51.886;17.078;2023-04-01T04:55:44;8.70;99.90
21403;DHT22;10862;51.886;17.078;2023-04-01T04:58:10;8.80;99.90
21403;DHT22;10862;51.886;17.078;2023-04-01T05:00:36;8.70;99.90
21403;DHT22;10862;51.886;17.078;2023-04-01T05:03:02;8.70;99.90
21403;DHT22;10862;51.886;17.078;2023-04-01T05:05:27;8.80;99.90
21403;DHT22;10862;51.886;17.078;2023-04-01T05:07:53;8.80;99.90
21403;DHT22;10862;51.886;17.078;2023-04-01T05:10:19;8.80;99.90
21403;DHT22;10862;51.886;17.078;2023-04-01T05:12:46;8.80;99.90
21403;DHT22;10862;51.886;17.078;2023-04-01T05:15:12;8.80;99.90
21403;DHT22;10862;51.886;17.078;2023-04-01T05:17:37;8.80;99.90
21403;DHT22;10862;51.886;17.078;2023-04-01T05:20:03;8.90;99.90
21403;DHT22;10862;51.886;17.078;2023-04-01T05:22:29;8.80;99.90
21403;DHT22;10862;51.886;17.078;2023-04-01T05:24:55;8.90;99.90
21403;DHT22;10862;51.886;17.078;2023-04-01T05:27:21;8.90;99.90
21403;DHT22;10862;51.886;17.078;2023-04-01T05:29:47;8.90;99.90
21403;DHT22;10862;51.886;17.078;2023-04-01T05:32:12;8.90;99.90
21403;DHT22;10862;51.886;17.078;2023-04-01T05:34:38;9.00;99.90
21403;DHT22;10862;51.886;17.078;2023-04-01T05:37:04;9.00;99.90
21403;DHT22;10862;51.886;17.078;2023-04-01T05:39:30;9.00;99.90
21403;DHT22;10862;51.886;17.078;2023-04-01T05:41:55;9.00;99.90
21403;DHT22;10862;51.886;17.078;2023-04-01T05:44:21;9.00;99.90
21403;DHT22;10862;51.886;17.078;2023-04-01T05:46:47;9.00;99.90
21403;DHT22;10862;51.886;17.078;2023-04-01T05:49:12;9.00;99.90
21403;DHT22;10862;51.886;17.078;2023-04-01T05:51:38;9.00;99.90
21403;DHT22;10862;51.886;17.078;2023-04-01T05:54:05;9.00;99.90
21403;DHT22;10862;51.886;17.078;2023-04-01T05:56:31;9.00;99.90
21403;DHT22;10862;51.886;17.078;2023-04-01T05:58:56;9.00;99.90
21403;DHT22;10862;51.886;17.078;2023-04-01T06:01:22;9.00;99.90
21403;DHT22;10862;51.886;17.078;2023-04-01T06:03:48;9.00;99.90
21403;DHT22;10862;51.886;17.078;2023-04-01T06:06:16;9.00;99.90
21403;DHT22;10862;51.886;17.078;2023-04-01T06:08:44;9.00;99.90
21403;DHT22;10862;51.886;17.078;2023-04-01T06:23:30;9.00;99.90
21403;DHT22;10862;51.886;17.078;2023-04-01T06:26:12;9.10;99.90
21403;DHT22;10862;51.886;17.078;2023-04-01T06:32:35;9.10;99.90
21403;DHT22;10862;51.886;17.078;2023-04-01T06:44:05;9.00;99.90
21403;DHT22;10862;51.886;17.078;2023-04-01T06:46:45;9.10;99.90
21403;DHT22;10862;51.886;17.078;2023-04-01T06:52:24;9.10;99.90
21403;DHT22;10862;51.886;17.078;2023-04-01T06:54:58;9.30;99.90
21403;DHT22;10862;51.886;17.078;2023-04-01T06:57:31;9.40;99.90
21403;DHT22;10862;51.886;17.078;2023-04-01T07:00:04;9.50;99.90
21403;DHT22;10862;51.886;17.078;2023-04-01T07:02:34;9.60;99.90
21403;DHT22;10862;51.886;17.078;2023-04-01T07:05:02;9.50;99.90
21403;DHT22;10862;51.886;17.078;2023-04-01T07:07:38;9.40;99.90
21403;DHT22;10862;51.886;17.078;2023-04-01T07:10:15;9.40;99.90
21403;DHT22;10862;51.886;17.078;2023-04-01T07:12:54;9.50;99.90
21403;DHT22;10862;51.886;17.078;2023-04-01T07:15:26;9.60;99.90
21403;DHT22;10862;51.886;17.078;2023-04-01T07:17:58;9.50;99.90
21403;DHT22;10862;51.886;17.078;2023-04-01T07:22:57;9.30;99.90
21403;DHT22;10862;51.886;17.078;2023-04-01T07:25:33;9.30;99.90
21403;DHT22;10862;51.886;17.078;2023-04-01T07:28:05;9.40;99.90
21403;DHT22;10862;51.886;17.078;2023-04-01T07:36:08;9.50;99.90
21403;DHT22;10862;51.886;17.078;2023-04-01T07:38:56;9.60;99.90
21403;DHT22;10862;51.886;17.078;2023-04-01T07:46:55;9.60;99.90
21403;DHT22;10862;51.886;17.078;2023-04-01T07:52:40;9.70;99.90
21403;DHT22;10862;51.886;17.078;2023-04-01T08:00:21;9.80;99.90
21403;DHT22;10862;51.886;17.078;2023-04-01T08:11:02;9.80;99.90
21403;DHT22;10862;51.886;17.078;2023-04-01T08:16:17;10.00;99.90
21403;DHT22;10862;51.886;17.078;2023-04-01T08:19:14;9.90;99.90
21403;DHT22;10862;51.886;17.078;2023-04-01T08:21:45;9.90;99.90
21403;DHT22;10862;51.886;17.078;2023-04-01T08:24:33;10.00;99.90
21403;DHT22;10862;51.886;17.078;2023-04-01T08:27:03;10.00;99.90
21403;DHT22;10862;51.886;17.078;2023-04-01T08:29:42;9.80;99.90
21403;DHT22;10862;51.886;17.078;2023-04-01T08:32:14;10.00;99.90
21403;DHT22;10862;51.886;17.078;2023-04-01T08:34:45;10.10;99.90
21403;DHT22;10862;51.886;17.078;2023-04-01T08:37:17;10.00;99.90
21403;DHT22;10862;51.886;17.078;2023-04-01T08:39:48;9.90;99.90
21403;DHT22;10862;51.886;17.078;2023-04-01T08:48:15;10.00;99.90
21403;DHT22;10862;51.886;17.078;2023-04-01T08:53:54;10.10;99.90
21403;DHT22;10862;51.886;17.078;2023-04-01T09:01:47;10.10;99.90
21403;DHT22;10862;51.886;17.078;2023-04-01T09:10:12;10.00;99.90
21403;DHT22;10862;51.886;17.078;2023-04-01T09:16:13;10.00;99.90
21403;DHT22;10862;51.886;17.078;2023-04-01T09:26:43;9.90;99.90
21403;DHT22;10862;51.886;17.078;2023-04-01T09:54:04;9.90;99.90
21403;DHT22;10862;51.886;17.078;2023-04-01T09:56:52;10.00;99.90
21403;DHT22;10862;51.886;17.078;2023-04-01T10:19:08;10.40;99.90
21403;DHT22;10862;51.886;17.078;2023-04-01T10:27:47;10.70;99.90
21403;DHT22;10862;51.886;17.078;2023-04-01T10:47:57;11.00;99.90
21403;DHT22;10862;51.886;17.078;2023-04-01T10:53:36;11.50;99.90
21403;DHT22;10862;51.886;17.078;2023-04-01T11:23:11;11.40;99.90
21403;DHT22;10862;51.886;17.078;2023-04-01T11:26:19;11.30;99.90
21403;DHT22;10862;51.886;17.078;2023-04-01T11:32:07;10.80;99.90
21403;DHT22;10862;51.886;17.078;2023-04-01T11:42:53;10.50;99.90
21403;DHT22;10862;51.886;17.078;2023-04-01T11:53:41;10.50;99.90
21403;DHT22;10862;51.886;17.078;2023-04-01T11:59:06;10.50;99.90
21403;DHT22;10862;51.886;17.078;2023-04-01T12:04:23;10.60;99.90
21403;DHT22;10862;51.886;17.078;2023-04-01T12:07:18;10.60;99.90
21403;DHT22;10862;51.886;17.078;2023-04-01T12:10:02;10.80;99.90
21403;DHT22;10862;51.886;17.078;2023-04-01T12:13:01;10.80;99.90
21403;DHT22;10862;51.886;17.078;2023-04-01T12:18:30;11.00;99.90
21403;DHT22;10862;51.886;17.078;2023-04-01T12:37:53;11.60;99.90
21403;DHT22;10862;51.886;17.078;2023-04-01T12:51:20;11.20;99.90
21403;DHT22;10862;51.886;17.078;2023-04-01T13:23:11;11.00;99.90
21403;DHT22;10862;51.886;17.078;2023-04-01T13:28:28;10.70;99.90
21403;DHT22;10862;51.886;17.078;2023-04-01T13:31:05;10.90;99.90
21403;DHT22;10862;51.886;17.078;2023-04-01T13:36:07;11.00;99.90
21403;DHT22;10862;51.886;17.078;2023-04-01T13:42:02;11.50;99.90
21403;DHT22;10862;51.886;17.078;2023-04-01T13:45:03;11.30;99.90
21403;DHT22;10862;51.886;17.078;2023-04-01T13:55:51;11.10;99.90
21403;DHT22;10862;51.886;17.078;2023-04-01T14:01:43;10.60;99.90
21403;DHT22;10862;51.886;17.078;2023-04-01T14:48:23;9.90;99.90
21403;DHT22;10862;51.886;17.078;2023-04-01T14:50:54;10.00;99.90
21403;DHT22;10862;51.886;17.078;2023-04-01T14:56:44;10.20;99.90
21403;DHT22;10862;51.886;17.078;2023-04-01T15:07:08;10.10;99.90
21403;DHT22;10862;51.886;17.078;2023-04-01T15:21:21;9.50;99.90
21403;DHT22;10862;51.886;17.078;2023-04-01T15:29:37;9.40;99.90
21403;DHT22;10862;51.886;17.078;2023-04-01T15:38:02;9.20;99.90
21403;DHT22;10862;51.886;17.078;2023-04-01T16:00:22;9.00;99.90
21403;DHT22;10862;51.886;17.078;2023-04-01T16:11:19;9.10;99.90
21403;DHT22;10862;51.886;17.078;2023-04-01T16:16:53;9.10;99.90
21403;DHT22;10862;51.886;17.078;2023-04-01T16:20:01;9.10;99.90
21403;DHT22;10862;51.886;17.078;2023-04-01T16:25:19;9.10;99.90
21403;DHT22;10862;51.886;17.078;2023-04-01T16:27:54;9.00;99.90
21403;DHT22;10862;51.886;17.078;2023-04-01T16:33:13;8.80;99.90
21403;DHT22;10862;51.886;17.078;2023-04-01T16:36:32;8.80;99.90
21403;DHT22;10862;51.886;17.078;2023-04-01T16:39:29;8.70;99.90
21403;DHT22;10862;51.886;17.078;2023-04-01T16:42:26;8.90;99.90
21403;DHT22;10862;51.886;17.078;2023-04-01T16:47:38;8.70;99.90
21403;DHT22;10862;51.886;17.078;2023-04-01T16:53:21;8.80;99.90
21403;DHT22;10862;51.886;17.078;2023-04-01T16:56:02;8.70;99.90
21403;DHT22;10862;51.886;17.078;2023-04-01T16:58:48;8.80;99.90
21403;DHT22;10862;51.886;17.078;2023-04-01T17:01:55;8.50;99.90
21403;DHT22;10862;51.886;17.078;2023-04-01T17:04:57;8.60;99.90
21403;DHT22;10862;51.886;17.078;2023-04-01T17:21:58;8.70;99.90
21403;DHT22;10862;51.886;17.078;2023-04-01T17:24:42;8.70;99.90
21403;DHT22;10862;51.886;17.078;2023-04-01T17:35:22;8.50;99.90
21403;DHT22;10862;51.886;17.078;2023-04-01T17:40:41;8.50;99.90
21403;DHT22;10862;51.886;17.078;2023-04-01T18:02:48;8.20;99.90
21403;DHT22;10862;51.886;17.078;2023-04-01T18:05:30;8.20;99.90
21403;DHT22;10862;51.886;17.078;2023-04-01T18:14:01;8.10;99.90
21403;DHT22;10862;51.886;17.078;2023-04-01T18:19:26;8.00;99.90
21403;DHT22;10862;51.886;17.078;2023-04-01T18:27:44;8.10;99.90
21403;DHT22;10862;51.886;17.078;2023-04-01T18:30:26;8.10;99.90
21403;DHT22;10862;51.886;17.078;2023-04-01T18:33:45;8.10;99.90
21403;DHT22;10862;51.886;17.078;2023-04-01T18:38:56;8.10;99.90
21403;DHT22;10862;51.886;17.078;2023-04-01T18:41:31;8.20;99.90
21403;DHT22;10862;51.886;17.078;2023-04-01T18:44:30;8.20;99.90
21403;DHT22;10862;51.886;17.078;2023-04-01T18:47:22;8.20;99.90
21403;DHT22;10862;51.886;17.078;2023-04-01T18:52:45;8.00;99.90
21403;DHT22;10862;51.886;17.078;2023-04-01T18:55:42;8.00;99.90
21403;DHT22;10862;51.886;17.078;2023-04-01T18:58:31;8.00;99.90
21403;DHT22;10862;51.886;17.078;2023-04-01T19:01:35;7.90;99.90
21403;DHT22;10862;51.886;17.078;2023-04-01T19:04:21;7.90;99.90
21403;DHT22;10862;51.886;17.078;2023-04-01T19:06:58;7.90;99.90
21403;DHT22;10862;51.886;17.078;2023-04-01T19:09:31;7.90;99.90
21403;DHT22;10862;51.886;17.078;2023-04-01T19:14:47;7.90;99.90
21403;DHT22;10862;51.886;17.078;2023-04-01T19:25:57;7.50;99.90
21403;DHT22;10862;51.886;17.078;2023-04-01T19:28:45;7.50;99.90
21403;DHT22;10862;51.886;17.078;2023-04-01T19:37:03;7.30;99.90
21403;DHT22;10862;51.886;17.078;2023-04-01T19:39:54;7.20;99.90
21403;DHT22;10862;51.886;17.078;2023-04-01T19:45:41;7.00;99.90
21403;DHT22;10862;51.886;17.078;2023-04-01T19:48:24;6.90;99.90
21403;DHT22;10862;51.886;17.078;2023-04-01T19:56:43;6.80;99.90
21403;DHT22;10862;51.886;17.078;2023-04-01T20:02:24;6.80;99.90
21403;DHT22;10862;51.886;17.078;2023-04-01T20:04:55;6.70;99.90
21403;DHT22;10862;51.886;17.078;2023-04-01T20:07:35;6.70;99.90
21403;DHT22;10862;51.886;17.078;2023-04-01T20:10:09;6.80;99.90
21403;DHT22;10862;51.886;17.078;2023-04-01T20:15:27;6.70;99.90
21403;DHT22;10862;51.886;17.078;2023-04-01T20:17:58;6.60;99.90
21403;DHT22;10862;51.886;17.078;2023-04-01T20:20:30;6.70;99.90
21403;DHT22;10862;51.886;17.078;2023-04-01T20:26:13;6.60;99.90
21403;DHT22;10862;51.886;17.078;2023-04-01T20:29:12;6.70;99.90
21403;DHT22;10862;51.886;17.078;2023-04-01T20:32:13;6.60;99.90
21403;DHT22;10862;51.886;17.078;2023-04-01T20:34:56;6.60;99.90
21403;DHT22;10862;51.886;17.078;2023-04-01T20:43:16;6.60;99.90
21403;DHT22;10862;51.886;17.078;2023-04-01T20:51:29;6.40;99.90
21403;DHT22;10862;51.886;17.078;2023-04-01T20:57:13;6.50;99.90
21403;DHT22;10862;51.886;17.078;2023-04-01T21:05:33;6.50;99.90
21403;DHT22;10862;51.886;17.078;2023-04-01T21:13:36;6.50;99.90
21403;DHT22;10862;51.886;17.078;2023-04-01T21:16:14;6.50;99.90
21403;DHT22;10862;51.886;17.078;2023-04-01T21:22:00;6.30;99.90
21403;DHT22;10862;51.886;17.078;2023-04-01T21:35:30;6.20;99.90
21403;DHT22;10862;51.886;17.078;2023-04-01T21:41:06;5.80;99.90
21403;DHT22;10862;51.886;17.078;2023-04-01T21:54:44;5.70;99.90
21403;DHT22;10862;51.886;17.078;2023-04-01T22:11:04;5.40;99.90
21403;DHT22;10862;51.886;17.078;2023-04-01T22:13:59;5.40;99.90
21403;DHT22;10862;51.886;17.078;2023-04-01T22:16:39;5.30;99.90
21403;DHT22;10862;51.886;17.078;2023-04-01T22:25:18;5.20;99.90
21403;DHT22;10862;51.886;17.078;2023-04-01T22:27:45;5.30;99.90
21403;DHT22;10862;51.886;17.078;2023-04-01T22:33:11;5.20;99.90
21403;DHT22;10862;51.886;17.078;2023-04-01T22:43:56;4.90;99.90
21403;DHT22;10862;51.886;17.078;2023-04-01T22:49:29;4.90;99.90
21403;DHT22;10862;51.886;17.078;2023-04-01T22:52:10;4.90;99.90
21403;DHT22;10862;51.886;17.078;2023-04-01T22:54:43;4.90;99.90
21403;DHT22;10862;51.886;17.078;2023-04-01T23:00:07;4.90;99.90
21403;DHT22;10862;51.886;17.078;2023-04-01T23:02:46;4.80;99.90
21403;DHT22;10862;51.886;17.078;2023-04-01T23:05:17;4.80;99.90
21403;DHT22;10862;51.886;17.078;2023-04-01T23:07:45;4.90;99.90
21403;DHT22;10862;51.886;17.078;2023-04-01T23:10:26;4.90;99.90
21403;DHT22;10862;51.886;17.078;2023-04-01T23:12:56;4.80;99.90
21403;DHT22;10862;51.886;17.078;2023-04-01T23:15:23;4.80;99.90
21403;DHT22;10862;51.886;17.078;2023-04-01T23:28:53;4.40;99.90
21403;DHT22;10862;51.886;17.078;2023-04-01T23:31:34;4.40;99.90
21403;DHT22;10862;51.886;17.078;2023-04-01T23:37:11;4.40;99.90
21403;DHT22;10862;51.886;17.078;2023-04-01T23:39:40;4.50;99.90
21403;DHT22;10862;51.886;17.078;2023-04-01T23:42:15;4.40;99.90
21403;DHT22;10862;51.886;17.078;2023-04-01T23:44:45;4.40;99.90
21403;DHT22;10862;51.886;17.078;2023-04-01T23:47:19;4.40;99.90
21403;DHT22;10862;51.886;17.078;2023-04-01T23:49:48;4.30;99.90
21403;DHT22;10862;51.886;17.078;2023-04-01T23:55:08;4.30;99.90
21403;DHT22;10862;51.886;17.078;2023-04-01T23:57:38;4.30;99.90
